sensor_id;sensor_type;location;lat;lon;timestamp;temperature;humidity
20827;DHT22;10574;52.508;13.236;2024-03-02T00:00:40;7.20;99.90
20827;DHT22;10574;52.508;13.236;2024-03-02T00:03:08;7.20;99.90
20827;DHT22;10574;52.508;13.236;2024-03-02T00:05:36;7.20;99.90
20827;DHT22;10574;52.508;13.236;2024-03-02T00:08:07;7.30;99.90
20827;DHT22;10574;52.508;13.236;2024-03-02T00:10:39;7.30;99.90
20827;DHT22;10574;52.508;13.236;2024-03-02T00:13:08;7.30;99.90
20827;DHT22;10574;52.508;13.236;2024-03-02T00:18:16;7.40;99.90
20827;DHT22;10574;52.508;13.236;2024-03-02T00:20:44;7.40;99.90
20827;DHT22;10574;52.508;13.236;2024-03-02T00:23:14;7.40;99.90
20827;DHT22;10574;52.508;13.236;2024-03-02T00:25:44;7.40;99.90
20827;DHT22;10574;52.508;13.236;2024-03-02T00:28:33;7.40;99.90
20827;DHT22;10574;52.508;13.236;2024-03-02T00:31:01;7.50;99.90
20827;DHT22;10574;52.508;13.236;2024-03-02T00:33:33;7.50;99.90
20827;DHT22;10574;52.508;13.236;2024-03-02T00:36:05;7.50;99.90
20827;DHT22;10574;52.508;13.236;2024-03-02T00:38:34;7.50;99.90
20827;DHT22;10574;52.508;13.236;2024-03-02T00:41:06;7.60;99.90
20827;DHT22;10574;52.508;13.236;2024-03-02T00:43:45;7.60;99.90
20827;DHT22;10574;52.508;13.236;2024-03-02T00:46:18;7.70;99.90
20827;DHT22;10574;52.508;13.236;2024-03-02T00:48:51;7.70;99.90
20827;DHT22;10574;52.508;13.236;2024-03-02T00:51:16;7.70;99.90
20827;DHT22;10574;52.508;13.236;2024-03-02T00:53:44;7.70;99.90
20827;DHT22;10574;52.508;13.236;2024-03-02T00:56:11;7.70;99.90
20827;DHT22;10574;52.508;13.236;2024-03-02T00:58:40;7.80;99.90
20827;DHT22;10574;52.508;13.236;2024-03-02T01:01:07;7.80;99.90
20827;DHT22;10574;52.508;13.236;2024-03-02T01:03:36;7.80;99.90
20827;DHT22;10574;52.508;13.236;2024-03-02T01:06:04;7.80;99.90
20827;DHT22;10574;52.508;13.236;2024-03-02T01:08:35;7.70;99.90
20827;DHT22;10574;52.508;13.236;2024-03-02T01:11:03;7.70;99.90
20827;DHT22;10574;52.508;13.236;2024-03-02T01:13:31;7.70;99.90
20827;DHT22;10574;52.508;13.236;2024-03-02T01:16:00;7.60;99.90
20827;DHT22;10574;52.508;13.236;2024-03-02T01:18:29;7.70;99.90
20827;DHT22;10574;52.508;13.236;2024-03-02T01:20:57;7.70;99.90
20827;DHT22;10574;52.508;13.236;2024-03-02T01:23:25;7.70;99.90
20827;DHT22;10574;52.508;13.236;2024-03-02T01:26:12;7.80;99.90
20827;DHT22;10574;52.508;13.236;2024-03-02T01:28:40;7.70;99.90
20827;DHT22;10574;52.508;13.236;2024-03-02T01:31:08;7.80;99.90
20827;DHT22;10574;52.508;13.236;2024-03-02T01:33:35;7.70;99.90
20827;DHT22;10574;52.508;13.236;2024-03-02T01:36:04;7.80;99.90
20827;DHT22;10574;52.508;13.236;2024-03-02T01:38:31;7.70;99.90
20827;DHT22;10574;52.508;13.236;2024-03-02T01:41:00;7.70;99.90
20827;DHT22;10574;52.508;13.236;2024-03-02T01:43:29;7.70;99.90
20827;DHT22;10574;52.508;13.236;2024-03-02T01:45:56;7.70;99.90
20827;DHT22;10574;52.508;13.236;2024-03-02T01:48:24;7.70;99.90
20827;DHT22;10574;52.508;13.236;2024-03-02T01:50:52;7.70;99.90
20827;DHT22;10574;52.508;13.236;2024-03-02T01:53:19;7.80;99.90
20827;DHT22;10574;52.508;13.236;2024-03-02T01:55:47;7.70;99.90
20827;DHT22;10574;52.508;13.236;2024-03-02T01:58:15;7.70;99.90
20827;DHT22;10574;52.508;13.236;2024-03-02T02:00:43;7.70;99.90
20827;DHT22;10574;52.508;13.236;2024-03-02T02:03:11;7.70;99.90
20827;DHT22;10574;52.508;13.236;2024-03-02T02:05:39;7.70;99.90
20827;DHT22;10574;52.508;13.236;2024-03-02T02:08:08;7.70;99.90
20827;DHT22;10574;52.508;13.236;2024-03-02T02:10:36;7.70;99.90
20827;DHT22;10574;52.508;13.236;2024-03-02T02:13:04;7.70;99.90
20827;DHT22;10574;52.508;13.236;2024-03-02T02:15:32;7.70;99.90
20827;DHT22;10574;52.508;13.236;2024-03-02T02:18:01;7.70;99.90
20827;DHT22;10574;52.508;13.236;2024-03-02T02:20:30;7.70;99.90
20827;DHT22;10574;52.508;13.236;2024-03-02T02:23:00;7.70;99.90
20827;DHT22;10574;52.508;13.236;2024-03-02T02:25:29;7.70;99.90
20827;DHT22;10574;52.508;13.236;2024-03-02T02:27:57;7.70;99.90
20827;DHT22;10574;52.508;13.236;2024-03-02T02:30:27;7.70;99.90
20827;DHT22;10574;52.508;13.236;2024-03-02T02:32:55;7.70;99.90
20827;DHT22;10574;52.508;13.236;2024-03-02T02:35:23;7.70;99.90
20827;DHT22;10574;52.508;13.236;2024-03-02T02:37:52;7.70;99.90
20827;DHT22;10574;52.508;13.236;2024-03-02T02:40:21;7.70;99.90
20827;DHT22;10574;52.508;13.236;2024-03-02T02:42:49;7.70;99.90
20827;DHT22;10574;52.508;13.236;2024-03-02T02:45:18;7.70;99.90
20827;DHT22;10574;52.508;13.236;2024-03-02T02:47:46;7.70;99.90
20827;DHT22;10574;52.508;13.236;2024-03-02T02:50:14;7.70;99.90
20827;DHT22;10574;52.508;13.236;2024-03-02T02:52:42;7.70;99.90
20827;DHT22;10574;52.508;13.236;2024-03-02T02:55:11;7.60;99.90
20827;DHT22;10574;52.508;13.236;2024-03-02T02:57:42;7.60;99.90
20827;DHT22;10574;52.508;13.236;2024-03-02T03:00:12;7.60;99.90
20827;DHT22;10574;52.508;13.236;2024-03-02T03:02:46;7.60;99.90
20827;DHT22;10574;52.508;13.236;2024-03-02T03:05:15;7.70;99.90
20827;DHT22;10574;52.508;13.236;2024-03-02T03:07:43;7.70;99.90
20827;DHT22;10574;52.508;13.236;2024-03-02T03:10:15;7.70;99.90
20827;DHT22;10574;52.508;13.236;2024-03-02T03:12:43;7.90;99.90
20827;DHT22;10574;52.508;13.236;2024-03-02T03:15:11;8.00;99.90
20827;DHT22;10574;52.508;13.236;2024-03-02T03:17:39;8.00;99.90
20827;DHT22;10574;52.508;13.236;2024-03-02T03:20:08;8.10;99.90
20827;DHT22;10574;52.508;13.236;2024-03-02T03:22:40;8.10;99.90
20827;DHT22;10574;52.508;13.236;2024-03-02T03:25:08;8.20;99.90
20827;DHT22;10574;52.508;13.236;2024-03-02T03:27:35;8.20;99.90
20827;DHT22;10574;52.508;13.236;2024-03-02T03:30:04;8.20;99.90
20827;DHT22;10574;52.508;13.236;2024-03-02T03:32:32;8.20;99.90
20827;DHT22;10574;52.508;13.236;2024-03-02T03:35:00;8.20;99.90
20827;DHT22;10574;52.508;13.236;2024-03-02T03:37:28;8.20;99.90
20827;DHT22;10574;52.508;13.236;2024-03-02T03:39:57;8.20;99.90
20827;DHT22;10574;52.508;13.236;2024-03-02T03:42:25;8.30;99.90
20827;DHT22;10574;52.508;13.236;2024-03-02T03:44:53;8.30;99.90
20827;DHT22;10574;52.508;13.236;2024-03-02T03:47:21;8.30;99.90
20827;DHT22;10574;52.508;13.236;2024-03-02T03:49:48;8.30;99.90
20827;DHT22;10574;52.508;13.236;2024-03-02T03:52:16;8.30;99.90
20827;DHT22;10574;52.508;13.236;2024-03-02T03:54:44;8.30;99.90
20827;DHT22;10574;52.508;13.236;2024-03-02T03:57:12;8.30;99.90
20827;DHT22;10574;52.508;13.236;2024-03-02T03:59:39;8.40;99.90
20827;DHT22;10574;52.508;13.236;2024-03-02T04:02:07;8.40;99.90
20827;DHT22;10574;52.508;13.236;2024-03-02T04:04:35;8.30;99.90
20827;DHT22;10574;52.508;13.236;2024-03-02T04:07:03;8.30;99.90
20827;DHT22;10574;52.508;13.236;2024-03-02T04:09:31;8.40;99.90
20827;DHT22;10574;52.508;13.236;2024-03-02T04:11:59;8.40;99.90
20827;DHT22;10574;52.508;13.236;2024-03-02T04:14:28;8.40;99.90
20827;DHT22;10574;52.508;13.236;2024-03-02T04:16:56;8.40;99.90
20827;DHT22;10574;52.508;13.236;2024-03-02T04:19:24;8.40;99.90
20827;DHT22;10574;52.508;13.236;2024-03-02T04:21:51;8.40;99.90
20827;DHT22;10574;52.508;13.236;2024-03-02T04:24:19;8.40;99.90
20827;DHT22;10574;52.508;13.236;2024-03-02T04:26:47;8.40;99.90
20827;DHT22;10574;52.508;13.236;2024-03-02T04:29:16;8.40;99.90
20827;DHT22;10574;52.508;13.236;2024-03-02T04:31:44;8.40;99.90
20827;DHT22;10574;52.508;13.236;2024-03-02T04:34:12;8.40;99.90
20827;DHT22;10574;52.508;13.236;2024-03-02T04:36:40;8.50;99.90
20827;DHT22;10574;52.508;13.236;2024-03-02T04:39:07;8.40;99.90
20827;DHT22;10574;52.508;13.236;2024-03-02T04:41:36;8.40;99.90
20827;DHT22;10574;52.508;13.236;2024-03-02T04:44:04;8.40;99.90
20827;DHT22;10574;52.508;13.236;2024-03-02T04:46:33;8.40;99.90
20827;DHT22;10574;52.508;13.236;2024-03-02T04:49:01;8.40;99.90
20827;DHT22;10574;52.508;13.236;2024-03-02T04:51:29;8.40;99.90
20827;DHT22;10574;52.508;13.236;2024-03-02T04:53:56;8.40;99.90
20827;DHT22;10574;52.508;13.236;2024-03-02T04:56:24;8.40;99.90
20827;DHT22;10574;52.508;13.236;2024-03-02T04:58:59;8.40;99.90
20827;DHT22;10574;52.508;13.236;2024-03-02T05:01:27;8.40;99.90
20827;DHT22;10574;52.508;13.236;2024-03-02T05:03:55;8.40;99.90
20827;DHT22;10574;52.508;13.236;2024-03-02T05:06:23;8.40;99.90
20827;DHT22;10574;52.508;13.236;2024-03-02T05:08:50;8.40;99.90
20827;DHT22;10574;52.508;13.236;2024-03-02T05:11:18;8.40;99.90
20827;DHT22;10574;52.508;13.236;2024-03-02T05:13:53;8.40;99.90
20827;DHT22;10574;52.508;13.236;2024-03-02T05:16:21;8.40;99.90
20827;DHT22;10574;52.508;13.236;2024-03-02T05:18:49;8.40;99.90
20827;DHT22;10574;52.508;13.236;2024-03-02T05:21:16;8.30;99.90
20827;DHT22;10574;52.508;13.236;2024-03-02T05:23:47;8.40;99.90
20827;DHT22;10574;52.508;13.236;2024-03-02T05:26:14;8.30;99.90
20827;DHT22;10574;52.508;13.236;2024-03-02T05:28:43;8.30;99.90
20827;DHT22;10574;52.508;13.236;2024-03-02T05:31:11;8.30;99.90
20827;DHT22;10574;52.508;13.236;2024-03-02T05:33:39;8.20;99.90
20827;DHT22;10574;52.508;13.236;2024-03-02T05:36:06;8.30;99.90
20827;DHT22;10574;52.508;13.236;2024-03-02T05:38:38;8.20;99.90
20827;DHT22;10574;52.508;13.236;2024-03-02T05:41:05;8.20;99.90
20827;DHT22;10574;52.508;13.236;2024-03-02T05:43:33;8.20;99.90
20827;DHT22;10574;52.508;13.236;2024-03-02T05:46:01;8.20;99.90
20827;DHT22;10574;52.508;13.236;2024-03-02T05:48:28;8.10;99.90
20827;DHT22;10574;52.508;13.236;2024-03-02T05:50:56;8.10;99.90
20827;DHT22;10574;52.508;13.236;2024-03-02T05:53:24;8.10;99.90
20827;DHT22;10574;52.508;13.236;2024-03-02T05:55:52;8.10;99.90
20827;DHT22;10574;52.508;13.236;2024-03-02T05:58:21;8.10;99.90
20827;DHT22;10574;52.508;13.236;2024-03-02T06:00:51;8.10;99.90
20827;DHT22;10574;52.508;13.236;2024-03-02T06:03:19;8.10;99.90
20827;DHT22;10574;52.508;13.236;2024-03-02T06:05:46;8.10;99.90
20827;DHT22;10574;52.508;13.236;2024-03-02T06:08:17;8.10;99.90
20827;DHT22;10574;52.508;13.236;2024-03-02T06:10:44;8.10;99.90
20827;DHT22;10574;52.508;13.236;2024-03-02T06:13:12;8.10;99.90
20827;DHT22;10574;52.508;13.236;2024-03-02T06:15:40;8.10;99.90
20827;DHT22;10574;52.508;13.236;2024-03-02T06:18:08;8.10;99.90
20827;DHT22;10574;52.508;13.236;2024-03-02T06:20:36;8.10;99.90
20827;DHT22;10574;52.508;13.236;2024-03-02T06:23:04;8.10;99.90
20827;DHT22;10574;52.508;13.236;2024-03-02T06:25:32;8.10;99.90
20827;DHT22;10574;52.508;13.236;2024-03-02T06:28:00;8.10;99.90
20827;DHT22;10574;52.508;13.236;2024-03-02T06:30:28;8.10;99.90
20827;DHT22;10574;52.508;13.236;2024-03-02T06:32:56;8.10;99.90
20827;DHT22;10574;52.508;13.236;2024-03-02T06:35:24;8.10;99.90
20827;DHT22;10574;52.508;13.236;2024-03-02T06:37:52;8.10;99.90
20827;DHT22;10574;52.508;13.236;2024-03-02T06:40:19;8.10;99.90
20827;DHT22;10574;52.508;13.236;2024-03-02T06:42:51;8.10;99.90
20827;DHT22;10574;52.508;13.236;2024-03-02T06:45:19;8.10;99.90
20827;DHT22;10574;52.508;13.236;2024-03-02T06:47:46;8.20;99.90
20827;DHT22;10574;52.508;13.236;2024-03-02T06:50:14;8.20;99.90
20827;DHT22;10574;52.508;13.236;2024-03-02T06:52:42;8.30;99.90
20827;DHT22;10574;52.508;13.236;2024-03-02T06:55:10;8.30;99.90
20827;DHT22;10574;52.508;13.236;2024-03-02T06:57:37;8.30;99.90
20827;DHT22;10574;52.508;13.236;2024-03-02T07:00:06;8.30;99.90
20827;DHT22;10574;52.508;13.236;2024-03-02T07:02:36;8.30;99.90
20827;DHT22;10574;52.508;13.236;2024-03-02T07:05:03;8.30;99.90
20827;DHT22;10574;52.508;13.236;2024-03-02T07:07:33;8.20;99.90
20827;DHT22;10574;52.508;13.236;2024-03-02T07:10:02;8.20;99.90
20827;DHT22;10574;52.508;13.236;2024-03-02T07:12:30;8.20;99.90
20827;DHT22;10574;52.508;13.236;2024-03-02T07:14:58;8.20;99.90
20827;DHT22;10574;52.508;13.236;2024-03-02T07:17:33;8.10;99.90
20827;DHT22;10574;52.508;13.236;2024-03-02T07:20:02;8.20;99.90
20827;DHT22;10574;52.508;13.236;2024-03-02T07:22:30;8.20;99.90
20827;DHT22;10574;52.508;13.236;2024-03-02T07:24:58;8.30;99.90
20827;DHT22;10574;52.508;13.236;2024-03-02T07:27:26;8.40;99.90
20827;DHT22;10574;52.508;13.236;2024-03-02T07:29:54;8.40;99.90
20827;DHT22;10574;52.508;13.236;2024-03-02T07:32:22;8.40;99.90
20827;DHT22;10574;52.508;13.236;2024-03-02T07:34:49;8.30;99.90
20827;DHT22;10574;52.508;13.236;2024-03-02T07:37:17;8.30;99.90
20827;DHT22;10574;52.508;13.236;2024-03-02T07:39:45;8.40;99.90
20827;DHT22;10574;52.508;13.236;2024-03-02T07:42:13;8.40;99.90
20827;DHT22;10574;52.508;13.236;2024-03-02T07:44:41;8.40;99.90
20827;DHT22;10574;52.508;13.236;2024-03-02T07:47:09;8.40;99.90
20827;DHT22;10574;52.508;13.236;2024-03-02T07:49:36;8.30;99.90
20827;DHT22;10574;52.508;13.236;2024-03-02T07:52:04;8.40;99.90
20827;DHT22;10574;52.508;13.236;2024-03-02T07:54:32;8.30;99.90
20827;DHT22;10574;52.508;13.236;2024-03-02T07:57:00;8.30;99.90
20827;DHT22;10574;52.508;13.236;2024-03-02T07:59:28;8.40;99.90
20827;DHT22;10574;52.508;13.236;2024-03-02T08:01:55;8.30;99.90
20827;DHT22;10574;52.508;13.236;2024-03-02T08:04:23;8.40;99.90
20827;DHT22;10574;52.508;13.236;2024-03-02T08:06:51;8.40;99.90
20827;DHT22;10574;52.508;13.236;2024-03-02T08:09:19;8.50;99.90
20827;DHT22;10574;52.508;13.236;2024-03-02T08:11:47;8.50;99.90
20827;DHT22;10574;52.508;13.236;2024-03-02T08:14:15;8.50;99.90
20827;DHT22;10574;52.508;13.236;2024-03-02T08:16:43;8.60;99.90
20827;DHT22;10574;52.508;13.236;2024-03-02T08:19:11;8.60;99.90
20827;DHT22;10574;52.508;13.236;2024-03-02T08:21:39;8.60;99.90
20827;DHT22;10574;52.508;13.236;2024-03-02T08:24:07;8.70;99.90
20827;DHT22;10574;52.508;13.236;2024-03-02T08:26:35;8.60;99.90
20827;DHT22;10574;52.508;13.236;2024-03-02T08:29:02;8.70;99.90
20827;DHT22;10574;52.508;13.236;2024-03-02T08:31:30;8.60;99.90
20827;DHT22;10574;52.508;13.236;2024-03-02T08:33:58;8.70;99.90
20827;DHT22;10574;52.508;13.236;2024-03-02T08:36:27;8.70;99.90
20827;DHT22;10574;52.508;13.236;2024-03-02T08:38:55;8.80;99.90
20827;DHT22;10574;52.508;13.236;2024-03-02T08:41:23;8.70;99.90
20827;DHT22;10574;52.508;13.236;2024-03-02T08:43:50;8.70;99.90
20827;DHT22;10574;52.508;13.236;2024-03-02T08:46:18;8.70;99.90
20827;DHT22;10574;52.508;13.236;2024-03-02T08:48:46;8.70;99.90
20827;DHT22;10574;52.508;13.236;2024-03-02T08:51:14;8.70;99.90
20827;DHT22;10574;52.508;13.236;2024-03-02T08:53:41;8.70;99.90
20827;DHT22;10574;52.508;13.236;2024-03-02T08:56:10;8.70;99.90
20827;DHT22;10574;52.508;13.236;2024-03-02T08:58:39;8.80;99.90
20827;DHT22;10574;52.508;13.236;2024-03-02T09:01:07;8.90;99.90
20827;DHT22;10574;52.508;13.236;2024-03-02T09:03:35;8.90;99.90
20827;DHT22;10574;52.508;13.236;2024-03-02T09:06:04;9.00;99.90
20827;DHT22;10574;52.508;13.236;2024-03-02T09:08:32;8.90;99.90
20827;DHT22;10574;52.508;13.236;2024-03-02T09:10:59;8.90;99.90
20827;DHT22;10574;52.508;13.236;2024-03-02T09:13:27;9.00;99.90
20827;DHT22;10574;52.508;13.236;2024-03-02T09:15:55;8.90;99.90
20827;DHT22;10574;52.508;13.236;2024-03-02T09:18:23;8.90;99.90
20827;DHT22;10574;52.508;13.236;2024-03-02T09:20:51;8.90;99.90
20827;DHT22;10574;52.508;13.236;2024-03-02T09:23:19;8.90;99.90
20827;DHT22;10574;52.508;13.236;2024-03-02T09:25:47;8.90;99.90
20827;DHT22;10574;52.508;13.236;2024-03-02T09:28:18;8.90;99.90
20827;DHT22;10574;52.508;13.236;2024-03-02T09:30:46;9.00;99.90
20827;DHT22;10574;52.508;13.236;2024-03-02T09:33:14;9.00;99.90
20827;DHT22;10574;52.508;13.236;2024-03-02T09:35:43;9.10;99.90
20827;DHT22;10574;52.508;13.236;2024-03-02T09:38:11;9.00;99.90
20827;DHT22;10574;52.508;13.236;2024-03-02T09:40:41;9.10;99.90
20827;DHT22;10574;52.508;13.236;2024-03-02T09:43:10;9.10;99.90
20827;DHT22;10574;52.508;13.236;2024-03-02T09:45:38;9.10;99.90
20827;DHT22;10574;52.508;13.236;2024-03-02T09:48:06;9.20;99.90
20827;DHT22;10574;52.508;13.236;2024-03-02T09:50:34;9.20;99.90
20827;DHT22;10574;52.508;13.236;2024-03-02T09:53:02;9.30;99.90
20827;DHT22;10574;52.508;13.236;2024-03-02T09:55:30;9.40;99.90
20827;DHT22;10574;52.508;13.236;2024-03-02T09:57:58;9.30;99.90
20827;DHT22;10574;52.508;13.236;2024-03-02T10:00:25;9.20;99.90
20827;DHT22;10574;52.508;13.236;2024-03-02T10:02:53;9.40;99.90
20827;DHT22;10574;52.508;13.236;2024-03-02T10:05:25;9.50;99.90
20827;DHT22;10574;52.508;13.236;2024-03-02T10:08:02;9.60;99.90
20827;DHT22;10574;52.508;13.236;2024-03-02T10:10:38;9.70;99.90
20827;DHT22;10574;52.508;13.236;2024-03-02T10:13:12;9.60;99.90
20827;DHT22;10574;52.508;13.236;2024-03-02T10:15:40;9.70;99.90
20827;DHT22;10574;52.508;13.236;2024-03-02T10:18:12;9.80;99.90
20827;DHT22;10574;52.508;13.236;2024-03-02T10:20:41;9.90;99.90
20827;DHT22;10574;52.508;13.236;2024-03-02T10:23:14;10.00;99.90
20827;DHT22;10574;52.508;13.236;2024-03-02T10:25:49;10.00;99.90
20827;DHT22;10574;52.508;13.236;2024-03-02T10:28:19;10.00;99.90
20827;DHT22;10574;52.508;13.236;2024-03-02T10:30:48;10.10;99.90
20827;DHT22;10574;52.508;13.236;2024-03-02T10:33:18;10.10;99.90
20827;DHT22;10574;52.508;13.236;2024-03-02T10:35:47;10.30;99.90
20827;DHT22;10574;52.508;13.236;2024-03-02T10:38:15;10.50;99.90
20827;DHT22;10574;52.508;13.236;2024-03-02T10:40:47;10.90;99.90
20827;DHT22;10574;52.508;13.236;2024-03-02T10:43:16;11.10;99.90
20827;DHT22;10574;52.508;13.236;2024-03-02T10:45:46;11.00;99.90
20827;DHT22;10574;52.508;13.236;2024-03-02T10:48:15;11.10;99.90
20827;DHT22;10574;52.508;13.236;2024-03-02T10:50:43;11.30;99.90
20827;DHT22;10574;52.508;13.236;2024-03-02T10:53:12;11.40;99.90
20827;DHT22;10574;52.508;13.236;2024-03-02T10:55:40;11.60;99.90
20827;DHT22;10574;52.508;13.236;2024-03-02T10:58:09;11.70;99.90
20827;DHT22;10574;52.508;13.236;2024-03-02T11:00:39;11.60;99.90
20827;DHT22;10574;52.508;13.236;2024-03-02T11:03:08;11.30;99.90
20827;DHT22;10574;52.508;13.236;2024-03-02T11:05:43;11.30;99.90
20827;DHT22;10574;52.508;13.236;2024-03-02T11:08:14;11.20;99.90
20827;DHT22;10574;52.508;13.236;2024-03-02T11:10:51;11.20;99.90
20827;DHT22;10574;52.508;13.236;2024-03-02T11:13:25;11.20;99.90
20827;DHT22;10574;52.508;13.236;2024-03-02T11:15:55;11.40;99.90
20827;DHT22;10574;52.508;13.236;2024-03-02T11:18:23;11.30;99.90
20827;DHT22;10574;52.508;13.236;2024-03-02T11:20:51;11.50;99.90
20827;DHT22;10574;52.508;13.236;2024-03-02T11:23:31;11.50;99.90
20827;DHT22;10574;52.508;13.236;2024-03-02T11:25:51;11.40;99.90
20827;DHT22;10574;52.508;13.236;2024-03-02T11:28:34;11.40;99.90
20827;DHT22;10574;52.508;13.236;2024-03-02T11:30:50;11.40;99.90
20827;DHT22;10574;52.508;13.236;2024-03-02T11:33:26;11.50;99.90
20827;DHT22;10574;52.508;13.236;2024-03-02T11:35:50;11.70;99.90
20827;DHT22;10574;52.508;13.236;2024-03-02T11:38:18;11.60;99.90
20827;DHT22;10574;52.508;13.236;2024-03-02T11:40:47;11.70;99.90
20827;DHT22;10574;52.508;13.236;2024-03-02T11:43:15;11.70;99.90
20827;DHT22;10574;52.508;13.236;2024-03-02T11:45:43;11.80;99.90
20827;DHT22;10574;52.508;13.236;2024-03-02T11:48:15;11.90;99.90
20827;DHT22;10574;52.508;13.236;2024-03-02T11:50:49;12.10;99.90
20827;DHT22;10574;52.508;13.236;2024-03-02T11:53:18;12.10;99.90
20827;DHT22;10574;52.508;13.236;2024-03-02T11:55:46;12.20;99.90
20827;DHT22;10574;52.508;13.236;2024-03-02T11:58:16;12.20;99.90
20827;DHT22;10574;52.508;13.236;2024-03-02T12:00:50;12.20;99.90
20827;DHT22;10574;52.508;13.236;2024-03-02T12:03:20;12.10;99.90
20827;DHT22;10574;52.508;13.236;2024-03-02T12:05:54;12.20;99.90
20827;DHT22;10574;52.508;13.236;2024-03-02T12:08:22;12.20;99.90
20827;DHT22;10574;52.508;13.236;2024-03-02T12:11:00;12.30;99.90
20827;DHT22;10574;52.508;13.236;2024-03-02T12:13:28;12.20;99.90
20827;DHT22;10574;52.508;13.236;2024-03-02T12:15:56;12.30;99.90
20827;DHT22;10574;52.508;13.236;2024-03-02T12:18:24;12.20;99.90
20827;DHT22;10574;52.508;13.236;2024-03-02T12:20:53;12.10;99.90
20827;DHT22;10574;52.508;13.236;2024-03-02T12:23:25;12.10;99.90
20827;DHT22;10574;52.508;13.236;2024-03-02T12:25:53;12.10;99.90
20827;DHT22;10574;52.508;13.236;2024-03-02T12:28:21;12.20;99.90
20827;DHT22;10574;52.508;13.236;2024-03-02T12:30:50;12.20;99.90
20827;DHT22;10574;52.508;13.236;2024-03-02T12:33:18;12.40;99.90
20827;DHT22;10574;52.508;13.236;2024-03-02T12:35:48;12.70;99.90
20827;DHT22;10574;52.508;13.236;2024-03-02T12:38:16;12.80;99.90
20827;DHT22;10574;52.508;13.236;2024-03-02T12:40:43;12.60;99.90
20827;DHT22;10574;52.508;13.236;2024-03-02T12:43:11;12.70;99.90
20827;DHT22;10574;52.508;13.236;2024-03-02T12:45:41;12.90;99.90
20827;DHT22;10574;52.508;13.236;2024-03-02T12:48:09;13.20;99.90
20827;DHT22;10574;52.508;13.236;2024-03-02T12:50:38;13.50;99.90
20827;DHT22;10574;52.508;13.236;2024-03-02T12:53:07;13.50;99.90
20827;DHT22;10574;52.508;13.236;2024-03-02T12:55:43;13.50;99.90
20827;DHT22;10574;52.508;13.236;2024-03-02T12:58:22;13.60;99.90
20827;DHT22;10574;52.508;13.236;2024-03-02T13:00:50;13.70;99.90
20827;DHT22;10574;52.508;13.236;2024-03-02T13:03:20;13.70;99.90
20827;DHT22;10574;52.508;13.236;2024-03-02T13:05:50;13.60;99.90
20827;DHT22;10574;52.508;13.236;2024-03-02T13:08:19;13.60;99.90
20827;DHT22;10574;52.508;13.236;2024-03-02T13:10:47;13.60;99.90
20827;DHT22;10574;52.508;13.236;2024-03-02T13:13:15;13.80;99.90
20827;DHT22;10574;52.508;13.236;2024-03-02T13:15:44;13.50;99.90
20827;DHT22;10574;52.508;13.236;2024-03-02T13:18:14;13.50;99.90
20827;DHT22;10574;52.508;13.236;2024-03-02T13:20:41;13.30;99.90
20827;DHT22;10574;52.508;13.236;2024-03-02T13:23:09;13.20;99.90
20827;DHT22;10574;52.508;13.236;2024-03-02T13:25:37;13.40;99.90
20827;DHT22;10574;52.508;13.236;2024-03-02T13:28:05;13.50;99.90
20827;DHT22;10574;52.508;13.236;2024-03-02T13:30:34;13.50;99.90
20827;DHT22;10574;52.508;13.236;2024-03-02T13:33:01;13.50;99.90
20827;DHT22;10574;52.508;13.236;2024-03-02T13:35:30;13.40;99.90
20827;DHT22;10574;52.508;13.236;2024-03-02T13:37:58;13.40;99.90
20827;DHT22;10574;52.508;13.236;2024-03-02T13:40:26;13.50;99.90
20827;DHT22;10574;52.508;13.236;2024-03-02T13:42:56;13.50;99.90
20827;DHT22;10574;52.508;13.236;2024-03-02T13:45:23;13.60;99.90
20827;DHT22;10574;52.508;13.236;2024-03-02T13:47:51;13.70;99.90
20827;DHT22;10574;52.508;13.236;2024-03-02T13:50:19;13.70;99.90
20827;DHT22;10574;52.508;13.236;2024-03-02T13:52:47;13.50;99.90
20827;DHT22;10574;52.508;13.236;2024-03-02T13:55:15;13.40;99.90
20827;DHT22;10574;52.508;13.236;2024-03-02T13:57:44;13.40;99.90
20827;DHT22;10574;52.508;13.236;2024-03-02T14:00:12;13.40;99.90
20827;DHT22;10574;52.508;13.236;2024-03-02T14:02:40;13.30;99.90
20827;DHT22;10574;52.508;13.236;2024-03-02T14:05:08;13.20;99.90
20827;DHT22;10574;52.508;13.236;2024-03-02T14:07:39;13.30;99.90
20827;DHT22;10574;52.508;13.236;2024-03-02T14:10:07;13.30;99.90
20827;DHT22;10574;52.508;13.236;2024-03-02T14:12:35;13.40;99.90
20827;DHT22;10574;52.508;13.236;2024-03-02T14:15:03;13.30;99.90
20827;DHT22;10574;52.508;13.236;2024-03-02T14:17:31;13.20;99.90
20827;DHT22;10574;52.508;13.236;2024-03-02T14:19:59;13.20;99.90
20827;DHT22;10574;52.508;13.236;2024-03-02T14:22:27;13.30;99.90
20827;DHT22;10574;52.508;13.236;2024-03-02T14:24:55;13.30;99.90
20827;DHT22;10574;52.508;13.236;2024-03-02T14:27:28;13.30;99.90
20827;DHT22;10574;52.508;13.236;2024-03-02T14:29:56;13.40;99.90
20827;DHT22;10574;52.508;13.236;2024-03-02T14:32:24;13.30;99.90
20827;DHT22;10574;52.508;13.236;2024-03-02T14:34:52;13.20;99.90
20827;DHT22;10574;52.508;13.236;2024-03-02T14:37:20;13.20;99.90
20827;DHT22;10574;52.508;13.236;2024-03-02T14:39:48;13.10;99.90
20827;DHT22;10574;52.508;13.236;2024-03-02T14:42:17;13.10;99.90
20827;DHT22;10574;52.508;13.236;2024-03-02T14:44:45;13.10;99.90
20827;DHT22;10574;52.508;13.236;2024-03-02T14:47:12;13.10;99.90
20827;DHT22;10574;52.508;13.236;2024-03-02T14:49:40;13.10;99.90
20827;DHT22;10574;52.508;13.236;2024-03-02T14:52:09;13.00;99.90
20827;DHT22;10574;52.508;13.236;2024-03-02T14:54:37;13.00;99.90
20827;DHT22;10574;52.508;13.236;2024-03-02T14:57:05;13.00;99.90
20827;DHT22;10574;52.508;13.236;2024-03-02T14:59:33;13.10;99.90
20827;DHT22;10574;52.508;13.236;2024-03-02T15:02:03;13.10;99.90
20827;DHT22;10574;52.508;13.236;2024-03-02T15:04:31;13.10;99.90
20827;DHT22;10574;52.508;13.236;2024-03-02T15:06:58;13.20;99.90
20827;DHT22;10574;52.508;13.236;2024-03-02T15:09:26;13.20;99.90
20827;DHT22;10574;52.508;13.236;2024-03-02T15:11:54;13.20;99.90
20827;DHT22;10574;52.508;13.236;2024-03-02T15:14:22;13.20;99.90
20827;DHT22;10574;52.508;13.236;2024-03-02T15:16:50;13.20;99.90
20827;DHT22;10574;52.508;13.236;2024-03-02T15:19:17;13.20;99.90
20827;DHT22;10574;52.508;13.236;2024-03-02T15:21:45;13.20;99.90
20827;DHT22;10574;52.508;13.236;2024-03-02T15:24:13;13.20;99.90
20827;DHT22;10574;52.508;13.236;2024-03-02T15:26:41;13.20;99.90
20827;DHT22;10574;52.508;13.236;2024-03-02T15:29:08;13.20;99.90
20827;DHT22;10574;52.508;13.236;2024-03-02T15:31:36;13.20;99.90
20827;DHT22;10574;52.508;13.236;2024-03-02T15:34:04;13.20;99.90
20827;DHT22;10574;52.508;13.236;2024-03-02T15:36:32;13.20;99.90